sensor_id;sensor_type;location;lat;lon;timestamp;pressure;altitude;pressure_sealevel;temperature;humidity
9423;BME280;65863;49.506;10.400;2023-08-01T00:00:49;96979.28;;;16.57;99.06
9423;BME280;65863;49.506;10.400;2023-08-01T00:03:33;96961.38;;;16.40;98.89
9423;BME280;65863;49.506;10.400;2023-08-01T00:06:17;96967.84;;;16.55;98.84
9423;BME280;65863;49.506;10.400;2023-08-01T00:09:03;96973.13;;;16.48;98.77
9423;BME280;65863;49.506;10.400;2023-08-01T00:11:47;96962.94;;;16.43;98.98
9423;BME280;65863;49.506;10.400;2023-08-01T00:14:31;96932.97;;;16.26;98.86
9423;BME280;65863;49.506;10.400;2023-08-01T00:17:15;96955.81;;;16.42;98.77
9423;BME280;65863;49.506;10.400;2023-08-01T00:19:59;96949.28;;;16.40;98.64
9423;BME280;65863;49.506;10.400;2023-08-01T00:22:43;96951.50;;;16.41;98.77
9423;BME280;65863;49.506;10.400;2023-08-01T00:25:28;96957.63;;;16.49;98.98
9423;BME280;65863;49.506;10.400;2023-08-01T00:28:12;96935.03;;;16.38;99.04
9423;BME280;65863;49.506;10.400;2023-08-01T00:31:07;96963.03;;;16.57;99.24
9423;BME280;65863;49.506;10.400;2023-08-01T00:33:55;96946.03;;;16.57;98.97
9423;BME280;65863;49.506;10.400;2023-08-01T00:36:39;96928.38;;;16.33;98.74
9423;BME280;65863;49.506;10.400;2023-08-01T00:39:23;96905.94;;;16.37;98.90
9423;BME280;65863;49.506;10.400;2023-08-01T00:42:07;96934.47;;;16.53;98.70
9423;BME280;65863;49.506;10.400;2023-08-01T00:44:51;96928.69;;;16.51;98.39
9423;BME280;65863;49.506;10.400;2023-08-01T00:47:38;96906.94;;;16.42;98.41
9423;BME280;65863;49.506;10.400;2023-08-01T00:50:22;96925.69;;;16.61;98.15
9423;BME280;65863;49.506;10.400;2023-08-01T00:53:06;96903.09;;;16.49;98.04
9423;BME280;65863;49.506;10.400;2023-08-01T00:55:51;96887.38;;;16.34;98.07
9423;BME280;65863;49.506;10.400;2023-08-01T00:58:37;96903.72;;;16.47;97.62
9423;BME280;65863;49.506;10.400;2023-08-01T01:01:21;96873.34;;;16.36;97.42
9423;BME280;65863;49.506;10.400;2023-08-01T01:04:05;96897.75;;;16.55;97.36
9423;BME280;65863;49.506;10.400;2023-08-01T01:06:54;96907.56;;;16.66;97.06
9423;BME280;65863;49.506;10.400;2023-08-01T01:09:41;96838.69;;;16.24;96.87
9423;BME280;65863;49.506;10.400;2023-08-01T01:12:25;96858.03;;;16.41;96.94
9423;BME280;65863;49.506;10.400;2023-08-01T01:15:09;96856.19;;;16.46;97.03
9423;BME280;65863;49.506;10.400;2023-08-01T01:17:54;96862.81;;;16.50;96.94
9423;BME280;65863;49.506;10.400;2023-08-01T01:20:38;96856.41;;;16.50;96.79
9423;BME280;65863;49.506;10.400;2023-08-01T01:23:22;96834.03;;;16.42;96.61
9423;BME280;65863;49.506;10.400;2023-08-01T01:26:09;96820.56;;;16.29;96.53
9423;BME280;65863;49.506;10.400;2023-08-01T01:28:54;96861.06;;;16.57;96.69
9423;BME280;65863;49.506;10.400;2023-08-01T01:31:38;96848.53;;;16.48;96.59
9423;BME280;65863;49.506;10.400;2023-08-01T01:34:23;96847.19;;;16.49;96.78
9423;BME280;65863;49.506;10.400;2023-08-01T01:37:07;96788.13;;;16.18;96.91
9423;BME280;65863;49.506;10.400;2023-08-01T01:39:51;96818.94;;;16.38;96.87
9423;BME280;65863;49.506;10.400;2023-08-01T01:42:35;96819.97;;;16.44;97.36
9423;BME280;65863;49.506;10.400;2023-08-01T01:45:19;96829.16;;;16.57;97.64
9423;BME280;65863;49.506;10.400;2023-08-01T01:48:03;96800.00;;;16.28;97.91
9423;BME280;65863;49.506;10.400;2023-08-01T01:50:46;96777.28;;;16.14;98.16
9423;BME280;65863;49.506;10.400;2023-08-01T01:53:31;96775.53;;;16.21;98.32
9423;BME280;65863;49.506;10.400;2023-08-01T01:56:15;96736.88;;;16.00;98.70
9423;BME280;65863;49.506;10.400;2023-08-01T01:58:59;96759.28;;;16.22;99.16
9423;BME280;65863;49.506;10.400;2023-08-01T02:01:43;96780.13;;;16.40;99.27
9423;BME280;65863;49.506;10.400;2023-08-01T02:04:27;96746.50;;;16.21;99.66
9423;BME280;65863;49.506;10.400;2023-08-01T02:07:11;96740.00;;;16.18;99.78
9423;BME280;65863;49.506;10.400;2023-08-01T02:09:55;96734.44;;;16.20;100.00
9423;BME280;65863;49.506;10.400;2023-08-01T02:12:39;96745.25;;;16.24;100.00
9423;BME280;65863;49.506;10.400;2023-08-01T02:15:23;96752.81;;;16.33;100.00
9423;BME280;65863;49.506;10.400;2023-08-01T02:18:07;96747.75;;;16.17;100.00
9423;BME280;65863;49.506;10.400;2023-08-01T02:20:51;96753.63;;;16.22;100.00
9423;BME280;65863;49.506;10.400;2023-08-01T02:23:35;96740.09;;;16.20;100.00
9423;BME280;65863;49.506;10.400;2023-08-01T02:26:21;96765.13;;;16.38;100.00
9423;BME280;65863;49.506;10.400;2023-08-01T02:29:06;96747.47;;;16.25;100.00
9423;BME280;65863;49.506;10.400;2023-08-01T02:31:51;96741.91;;;16.27;100.00
9423;BME280;65863;49.506;10.400;2023-08-01T02:34:35;96733.22;;;16.23;100.00
9423;BME280;65863;49.506;10.400;2023-08-01T02:37:19;96749.50;;;16.37;100.00
9423;BME280;65863;49.506;10.400;2023-08-01T02:40:07;96757.25;;;16.36;100.00
9423;BME280;65863;49.506;10.400;2023-08-01T02:42:52;96742.53;;;16.26;100.00
9423;BME280;65863;49.506;10.400;2023-08-01T02:45:36;96733.94;;;16.24;100.00
9423;BME280;65863;49.506;10.400;2023-08-01T02:48:20;96710.91;;;16.04;100.00
9423;BME280;65863;49.506;10.400;2023-08-01T02:51:04;96732.22;;;16.18;100.00
9423;BME280;65863;49.506;10.400;2023-08-01T02:53:48;96763.75;;;16.39;100.00
9423;BME280;65863;49.506;10.400;2023-08-01T02:56:32;96751.81;;;16.40;99.76
9423;BME280;65863;49.506;10.400;2023-08-01T02:59:16;96748.84;;;16.38;99.30
9423;BME280;65863;49.506;10.400;2023-08-01T03:02:01;96727.03;;;16.27;99.25
9423;BME280;65863;49.506;10.400;2023-08-01T03:04:45;96720.00;;;16.28;99.18
9423;BME280;65863;49.506;10.400;2023-08-01T03:07:29;96662.63;;;15.88;99.22
9423;BME280;65863;49.506;10.400;2023-08-01T03:10:13;96723.56;;;16.28;99.71
9423;BME280;65863;49.506;10.400;2023-08-01T03:12:57;96703.81;;;16.16;99.71
9423;BME280;65863;49.506;10.400;2023-08-01T03:15:41;96705.19;;;16.15;100.00
9423;BME280;65863;49.506;10.400;2023-08-01T03:18:25;96688.59;;;16.10;100.00
9423;BME280;65863;49.506;10.400;2023-08-01T03:21:10;96688.50;;;16.08;100.00
9423;BME280;65863;49.506;10.400;2023-08-01T03:23:54;96701.72;;;16.17;100.00
9423;BME280;65863;49.506;10.400;2023-08-01T03:26:38;96693.84;;;16.15;100.00
9423;BME280;65863;49.506;10.400;2023-08-01T03:29:22;96674.63;;;16.00;100.00
9423;BME280;65863;49.506;10.400;2023-08-01T03:32:06;96660.53;;;15.88;100.00
9423;BME280;65863;49.506;10.400;2023-08-01T03:34:50;96691.16;;;16.17;100.00
9423;BME280;65863;49.506;10.400;2023-08-01T03:37:34;96665.00;;;16.05;100.00
9423;BME280;65863;49.506;10.400;2023-08-01T03:40:18;96671.50;;;16.08;100.00
9423;BME280;65863;49.506;10.400;2023-08-01T03:43:03;96657.69;;;16.14;100.00
9423;BME280;65863;49.506;10.400;2023-08-01T03:45:47;96678.56;;;16.21;100.00
9423;BME280;65863;49.506;10.400;2023-08-01T03:48:31;96644.66;;;16.09;100.00
9423;BME280;65863;49.506;10.400;2023-08-01T03:51:15;96659.97;;;16.04;100.00
9423;BME280;65863;49.506;10.400;2023-08-01T03:54:03;96656.28;;;16.01;100.00
9423;BME280;65863;49.506;10.400;2023-08-01T03:56:47;96668.38;;;16.15;100.00
9423;BME280;65863;49.506;10.400;2023-08-01T03:59:31;96637.84;;;16.00;100.00
9423;BME280;65863;49.506;10.400;2023-08-01T04:02:15;96619.19;;;15.95;100.00
9423;BME280;65863;49.506;10.400;2023-08-01T04:04:59;96658.97;;;16.25;100.00
9423;BME280;65863;49.506;10.400;2023-08-01T04:07:43;96665.19;;;16.35;100.00
9423;BME280;65863;49.506;10.400;2023-08-01T04:10:27;96648.38;;;16.25;100.00
9423;BME280;65863;49.506;10.400;2023-08-01T04:13:11;96638.19;;;16.20;100.00
9423;BME280;65863;49.506;10.400;2023-08-01T04:15:55;96643.88;;;16.34;100.00
9423;BME280;65863;49.506;10.400;2023-08-01T04:18:39;96634.75;;;16.35;100.00
9423;BME280;65863;49.506;10.400;2023-08-01T04:21:23;96584.50;;;16.08;100.00
9423;BME280;65863;49.506;10.400;2023-08-01T04:24:07;96572.44;;;15.94;100.00
9423;BME280;65863;49.506;10.400;2023-08-01T04:26:51;96608.13;;;16.27;100.00
9423;BME280;65863;49.506;10.400;2023-08-01T04:29:36;96618.72;;;16.26;100.00
9423;BME280;65863;49.506;10.400;2023-08-01T04:32:20;96628.78;;;16.29;100.00
9423;BME280;65863;49.506;10.400;2023-08-01T04:35:05;96631.72;;;16.31;100.00
9423;BME280;65863;49.506;10.400;2023-08-01T04:37:49;96626.56;;;16.28;100.00
9423;BME280;65863;49.506;10.400;2023-08-01T04:40:33;96664.56;;;16.50;99.96
9423;BME280;65863;49.506;10.400;2023-08-01T04:43:17;96632.75;;;16.24;99.96
9423;BME280;65863;49.506;10.400;2023-08-01T04:46:01;96663.22;;;16.51;100.00
9423;BME280;65863;49.506;10.400;2023-08-01T04:48:45;96632.03;;;16.24;100.00
9423;BME280;65863;49.506;10.400;2023-08-01T04:51:29;96642.41;;;16.33;100.00
9423;BME280;65863;49.506;10.400;2023-08-01T04:54:13;96676.84;;;16.55;100.00
9423;BME280;65863;49.506;10.400;2023-08-01T04:56:57;96638.84;;;16.32;100.00
9423;BME280;65863;49.506;10.400;2023-08-01T04:59:41;96645.13;;;16.31;100.00
9423;BME280;65863;49.506;10.400;2023-08-01T05:02:25;96601.78;;;16.00;100.00
9423;BME280;65863;49.506;10.400;2023-08-01T05:05:09;96669.91;;;16.44;100.00
9423;BME280;65863;49.506;10.400;2023-08-01T05:07:53;96656.38;;;16.29;100.00
9423;BME280;65863;49.506;10.400;2023-08-01T05:10:37;96657.94;;;16.32;100.00
9423;BME280;65863;49.506;10.400;2023-08-01T05:13:21;96651.72;;;16.22;100.00
9423;BME280;65863;49.506;10.400;2023-08-01T05:16:05;96635.88;;;16.16;100.00
9423;BME280;65863;49.506;10.400;2023-08-01T05:18:49;96659.81;;;16.41;100.00
9423;BME280;65863;49.506;10.400;2023-08-01T05:21:34;96667.81;;;16.45;100.00
9423;BME280;65863;49.506;10.400;2023-08-01T05:24:18;96640.50;;;16.24;100.00
9423;BME280;65863;49.506;10.400;2023-08-01T05:27:02;96656.06;;;16.37;100.00
9423;BME280;65863;49.506;10.400;2023-08-01T05:29:46;96639.97;;;16.27;100.00
9423;BME280;65863;49.506;10.400;2023-08-01T05:32:30;96661.28;;;16.28;100.00
9423;BME280;65863;49.506;10.400;2023-08-01T05:35:14;96644.81;;;16.25;100.00
9423;BME280;65863;49.506;10.400;2023-08-01T05:37:58;96642.72;;;16.25;100.00
9423;BME280;65863;49.506;10.400;2023-08-01T05:40:43;96650.25;;;16.21;100.00
9423;BME280;65863;49.506;10.400;2023-08-01T05:43:27;96644.47;;;16.18;100.00
9423;BME280;65863;49.506;10.400;2023-08-01T05:46:11;96658.44;;;16.28;100.00
9423;BME280;65863;49.506;10.400;2023-08-01T05:48:55;96634.72;;;16.22;100.00
9423;BME280;65863;49.506;10.400;2023-08-01T05:51:39;96600.94;;;15.98;100.00
9423;BME280;65863;49.506;10.400;2023-08-01T05:54:23;96656.56;;;16.33;100.00
9423;BME280;65863;49.506;10.400;2023-08-01T05:57:08;96643.13;;;16.20;100.00
9423;BME280;65863;49.506;10.400;2023-08-01T05:59:52;96647.44;;;16.21;100.00
9423;BME280;65863;49.506;10.400;2023-08-01T06:02:37;96658.13;;;16.22;100.00
9423;BME280;65863;49.506;10.400;2023-08-01T06:05:21;96641.44;;;16.14;100.00
9423;BME280;65863;49.506;10.400;2023-08-01T06:08:08;96657.91;;;16.18;100.00
9423;BME280;65863;49.506;10.400;2023-08-01T06:10:52;96670.41;;;16.27;100.00
9423;BME280;65863;49.506;10.400;2023-08-01T06:13:36;96599.81;;;15.77;100.00
9423;BME280;65863;49.506;10.400;2023-08-01T06:16:20;96667.69;;;16.29;100.00
9423;BME280;65863;49.506;10.400;2023-08-01T06:19:05;96648.78;;;16.20;100.00
9423;BME280;65863;49.506;10.400;2023-08-01T06:21:48;96654.13;;;16.27;100.00
9423;BME280;65863;49.506;10.400;2023-08-01T06:24:32;96670.84;;;16.35;100.00
9423;BME280;65863;49.506;10.400;2023-08-01T06:27:16;96662.53;;;16.25;100.00
9423;BME280;65863;49.506;10.400;2023-08-01T06:30:01;96673.88;;;16.39;100.00
9423;BME280;65863;49.506;10.400;2023-08-01T06:32:45;96684.69;;;16.43;100.00
9423;BME280;65863;49.506;10.400;2023-08-01T06:35:29;96666.44;;;16.32;100.00
9423;BME280;65863;49.506;10.400;2023-08-01T06:38:13;96682.38;;;16.39;100.00
9423;BME280;65863;49.506;10.400;2023-08-01T06:40:57;96659.28;;;16.31;100.00
9423;BME280;65863;49.506;10.400;2023-08-01T06:43:41;96674.09;;;16.43;100.00
9423;BME280;65863;49.506;10.400;2023-08-01T06:46:25;96677.88;;;16.48;100.00
9423;BME280;65863;49.506;10.400;2023-08-01T06:49:10;96669.38;;;16.48;100.00
9423;BME280;65863;49.506;10.400;2023-08-01T06:51:54;96636.66;;;16.31;100.00
9423;BME280;65863;49.506;10.400;2023-08-01T06:54:38;96666.34;;;16.44;100.00
9423;BME280;65863;49.506;10.400;2023-08-01T06:57:23;96643.78;;;16.32;100.00
9423;BME280;65863;49.506;10.400;2023-08-01T07:00:07;96650.16;;;16.32;100.00
9423;BME280;65863;49.506;10.400;2023-08-01T07:02:52;96661.28;;;16.28;100.00
9423;BME280;65863;49.506;10.400;2023-08-01T07:05:36;96614.75;;;15.92;100.00
9423;BME280;65863;49.506;10.400;2023-08-01T07:08:20;96648.88;;;16.08;100.00
9423;BME280;65863;49.506;10.400;2023-08-01T07:11:05;96638.19;;;16.06;100.00
9423;BME280;65863;49.506;10.400;2023-08-01T07:13:49;96625.66;;;15.97;100.00
9423;BME280;65863;49.506;10.400;2023-08-01T07:16:33;96644.78;;;16.11;100.00
9423;BME280;65863;49.506;10.400;2023-08-01T07:19:17;96651.41;;;16.15;100.00
9423;BME280;65863;49.506;10.400;2023-08-01T07:22:02;96644.38;;;16.16;100.00
9423;BME280;65863;49.506;10.400;2023-08-01T07:24:46;96626.50;;;16.00;100.00
9423;BME280;65863;49.506;10.400;2023-08-01T07:27:30;96645.81;;;16.04;100.00
9423;BME280;65863;49.506;10.400;2023-08-01T07:30:14;96651.94;;;16.12;100.00
9423;BME280;65863;49.506;10.400;2023-08-01T07:32:59;96597.97;;;15.82;100.00
9423;BME280;65863;49.506;10.400;2023-08-01T07:35:43;96680.69;;;16.34;100.00
9423;BME280;65863;49.506;10.400;2023-08-01T07:38:27;96652.13;;;16.16;100.00
9423;BME280;65863;49.506;10.400;2023-08-01T07:41:11;96639.03;;;16.23;100.00
9423;BME280;65863;49.506;10.400;2023-08-01T07:43:55;96593.59;;;15.93;100.00
9423;BME280;65863;49.506;10.400;2023-08-01T07:46:39;96625.47;;;16.07;100.00
9423;BME280;65863;49.506;10.400;2023-08-01T07:49:23;96626.50;;;16.00;100.00
9423;BME280;65863;49.506;10.400;2023-08-01T07:52:07;96653.22;;;16.37;100.00
9423;BME280;65863;49.506;10.400;2023-08-01T07:54:51;96671.47;;;16.33;100.00
9423;BME280;65863;49.506;10.400;2023-08-01T07:57:37;96512.06;;;15.24;100.00
9423;BME280;65863;49.506;10.400;2023-08-01T08:00:21;96638.38;;;16.10;100.00
9423;BME280;65863;49.506;10.400;2023-08-01T08:03:05;96662.84;;;16.17;100.00
9423;BME280;65863;49.506;10.400;2023-08-01T08:05:49;96669.13;;;16.30;100.00
9423;BME280;65863;49.506;10.400;2023-08-01T08:08:34;96633.66;;;16.01;100.00
9423;BME280;65863;49.506;10.400;2023-08-01T08:11:18;96671.66;;;16.24;100.00
9423;BME280;65863;49.506;10.400;2023-08-01T08:14:02;96575.84;;;15.53;100.00
9423;BME280;65863;49.506;10.400;2023-08-01T08:16:46;96626.59;;;15.88;100.00
9423;BME280;65863;49.506;10.400;2023-08-01T08:19:30;96610.56;;;15.93;100.00
9423;BME280;65863;49.506;10.400;2023-08-01T08:22:14;96602.63;;;16.03;100.00
9423;BME280;65863;49.506;10.400;2023-08-01T08:24:58;96562.66;;;15.83;100.00
9423;BME280;65863;49.506;10.400;2023-08-01T08:27:42;96561.31;;;15.84;100.00
9423;BME280;65863;49.506;10.400;2023-08-01T08:30:26;96577.03;;;15.87;100.00
9423;BME280;65863;49.506;10.400;2023-08-01T08:33:19;96593.91;;;15.99;100.00
9423;BME280;65863;49.506;10.400;2023-08-01T08:36:03;96584.69;;;15.98;100.00
9423;BME280;65863;49.506;10.400;2023-08-01T08:38:47;96616.81;;;16.17;100.00
9423;BME280;65863;49.506;10.400;2023-08-01T08:41:45;96606.00;;;16.13;100.00
9423;BME280;65863;49.506;10.400;2023-08-01T08:44:29;96603.19;;;16.13;100.00
9423;BME280;65863;49.506;10.400;2023-08-01T08:47:17;96630.66;;;16.39;100.00
9423;BME280;65863;49.506;10.400;2023-08-01T08:50:02;96616.41;;;16.37;100.00
9423;BME280;65863;49.506;10.400;2023-08-01T08:52:47;96620.19;;;16.41;100.00
9423;BME280;65863;49.506;10.400;2023-08-01T08:55:31;96628.91;;;16.59;100.00
9423;BME280;65863;49.506;10.400;2023-08-01T08:58:16;96611.81;;;16.43;100.00
9423;BME280;65863;49.506;10.400;2023-08-01T09:01:03;96629.63;;;16.60;100.00
9423;BME280;65863;49.506;10.400;2023-08-01T09:03:47;96626.59;;;16.83;100.00
9423;BME280;65863;49.506;10.400;2023-08-01T09:06:34;96618.72;;;16.68;99.78
9423;BME280;65863;49.506;10.400;2023-08-01T09:09:21;96635.13;;;16.97;99.35
9423;BME280;65863;49.506;10.400;2023-08-01T09:12:07;96657.88;;;17.13;98.67
9423;BME280;65863;49.506;10.400;2023-08-01T09:14:56;96652.19;;;17.13;98.00
9423;BME280;65863;49.506;10.400;2023-08-01T09:17:54;96649.66;;;17.19;97.54
9423;BME280;65863;49.506;10.400;2023-08-01T09:20:48;96646.06;;;17.33;96.94
9423;BME280;65863;49.506;10.400;2023-08-01T09:23:32;96629.25;;;17.37;96.08
9423;BME280;65863;49.506;10.400;2023-08-01T09:26:16;96633.47;;;17.36;95.64
9423;BME280;65863;49.506;10.400;2023-08-01T09:29:01;96653.69;;;17.58;94.99
9423;BME280;65863;49.506;10.400;2023-08-01T09:31:45;96641.69;;;17.60;94.62
9423;BME280;65863;49.506;10.400;2023-08-01T09:34:30;96637.72;;;17.51;93.72
9423;BME280;65863;49.506;10.400;2023-08-01T09:37:14;96633.19;;;17.60;93.71
9423;BME280;65863;49.506;10.400;2023-08-01T09:39:58;96605.81;;;17.36;93.67
9423;BME280;65863;49.506;10.400;2023-08-01T09:42:44;96604.13;;;17.45;93.65
9423;BME280;65863;49.506;10.400;2023-08-01T09:45:28;96623.03;;;17.70;93.48
9423;BME280;65863;49.506;10.400;2023-08-01T09:48:22;96629.66;;;18.05;93.22
9423;BME280;65863;49.506;10.400;2023-08-01T09:51:10;96601.97;;;18.21;92.37
9423;BME280;65863;49.506;10.400;2023-08-01T09:53:56;96619.75;;;18.70;91.43
9423;BME280;65863;49.506;10.400;2023-08-01T09:56:40;96618.81;;;18.81;90.27
9423;BME280;65863;49.506;10.400;2023-08-01T09:59:28;96609.03;;;18.52;89.18
9423;BME280;65863;49.506;10.400;2023-08-01T10:02:15;96634.03;;;18.08;88.06
9423;BME280;65863;49.506;10.400;2023-08-01T10:05:00;96647.06;;;18.13;88.79
9423;BME280;65863;49.506;10.400;2023-08-01T10:07:44;96630.03;;;17.83;89.29
9423;BME280;65863;49.506;10.400;2023-08-01T10:10:29;96646.50;;;17.87;90.16
9423;BME280;65863;49.506;10.400;2023-08-01T10:13:14;96659.78;;;17.82;90.56
9423;BME280;65863;49.506;10.400;2023-08-01T10:15:59;96644.63;;;17.92;90.96
9423;BME280;65863;49.506;10.400;2023-08-01T10:18:44;96633.84;;;18.04;90.91
9423;BME280;65863;49.506;10.400;2023-08-01T10:21:28;96633.31;;;18.23;90.42
9423;BME280;65863;49.506;10.400;2023-08-01T10:24:13;96625.25;;;18.50;89.17
9423;BME280;65863;49.506;10.400;2023-08-01T10:26:57;96617.38;;;18.64;87.88
9423;BME280;65863;49.506;10.400;2023-08-01T10:29:42;96573.75;;;18.57;86.42
9423;BME280;65863;49.506;10.400;2023-08-01T10:32:34;96609.28;;;18.74;85.02
9423;BME280;65863;49.506;10.400;2023-08-01T10:35:19;96609.81;;;18.71;84.20
9423;BME280;65863;49.506;10.400;2023-08-01T10:38:12;96631.72;;;18.68;83.77
9423;BME280;65863;49.506;10.400;2023-08-01T10:40:57;96626.88;;;18.87;84.01
9423;BME280;65863;49.506;10.400;2023-08-01T10:43:41;96606.06;;;19.16;83.56
9423;BME280;65863;49.506;10.400;2023-08-01T10:46:25;96610.31;;;19.15;82.19
9423;BME280;65863;49.506;10.400;2023-08-01T10:49:09;96602.97;;;19.10;81.32
9423;BME280;65863;49.506;10.400;2023-08-01T10:51:53;96635.00;;;19.29;81.48
9423;BME280;65863;49.506;10.400;2023-08-01T10:54:37;96648.44;;;18.44;82.42
9423;BME280;65863;49.506;10.400;2023-08-01T10:57:23;96644.88;;;17.08;83.12
9423;BME280;65863;49.506;10.400;2023-08-01T11:00:07;96676.34;;;16.86;86.02
9423;BME280;65863;49.506;10.400;2023-08-01T11:02:53;96680.69;;;16.34;86.27
9423;BME280;65863;49.506;10.400;2023-08-01T11:05:37;96706.94;;;16.48;86.96
9423;BME280;65863;49.506;10.400;2023-08-01T11:08:21;96674.63;;;16.40;87.09
9423;BME280;65863;49.506;10.400;2023-08-01T11:11:07;96693.94;;;16.71;86.49
9423;BME280;65863;49.506;10.400;2023-08-01T11:13:55;96665.00;;;16.59;85.53
9423;BME280;65863;49.506;10.400;2023-08-01T11:16:40;96714.25;;;17.07;84.88
9423;BME280;65863;49.506;10.400;2023-08-01T11:19:28;96688.84;;;16.95;84.41
9423;BME280;65863;49.506;10.400;2023-08-01T11:22:13;96699.66;;;17.27;84.88
9423;BME280;65863;49.506;10.400;2023-08-01T11:24:57;96690.81;;;17.34;85.25
9423;BME280;65863;49.506;10.400;2023-08-01T11:27:41;96716.38;;;17.64;85.38
9423;BME280;65863;49.506;10.400;2023-08-01T11:30:32;96712.06;;;17.63;85.48
9423;BME280;65863;49.506;10.400;2023-08-01T11:33:19;96694.94;;;18.05;86.09
9423;BME280;65863;49.506;10.400;2023-08-01T11:36:07;96704.06;;;18.49;84.73
9423;BME280;65863;49.506;10.400;2023-08-01T11:38:52;96686.00;;;18.74;83.23
9423;BME280;65863;49.506;10.400;2023-08-01T11:41:36;96694.50;;;19.06;80.85
9423;BME280;65863;49.506;10.400;2023-08-01T11:44:23;96718.66;;;20.27;79.92
9423;BME280;65863;49.506;10.400;2023-08-01T11:47:15;96714.69;;;20.73;77.46
9423;BME280;65863;49.506;10.400;2023-08-01T11:49:59;96697.16;;;20.62;74.06
9423;BME280;65863;49.506;10.400;2023-08-01T11:52:46;96712.22;;;21.03;72.00
9423;BME280;65863;49.506;10.400;2023-08-01T11:55:34;96708.72;;;21.47;70.22
9423;BME280;65863;49.506;10.400;2023-08-01T11:58:36;96714.63;;;21.11;67.87
9423;BME280;65863;49.506;10.400;2023-08-01T12:01:21;96676.78;;;21.30;68.11
9423;BME280;65863;49.506;10.400;2023-08-01T12:04:06;96679.38;;;21.22;66.86
9423;BME280;65863;49.506;10.400;2023-08-01T12:06:50;96656.56;;;21.44;66.29
9423;BME280;65863;49.506;10.400;2023-08-01T12:09:34;96668.06;;;21.46;66.53
9423;BME280;65863;49.506;10.400;2023-08-01T12:12:18;96624.94;;;21.16;65.58
9423;BME280;65863;49.506;10.400;2023-08-01T12:15:02;96640.03;;;22.07;65.65
9423;BME280;65863;49.506;10.400;2023-08-01T12:17:46;96608.81;;;21.91;62.73
9423;BME280;65863;49.506;10.400;2023-08-01T12:20:30;96661.41;;;22.06;61.04
9423;BME280;65863;49.506;10.400;2023-08-01T12:23:14;96610.03;;;22.08;60.83
9423;BME280;65863;49.506;10.400;2023-08-01T12:25:58;96621.59;;;22.37;60.38
9423;BME280;65863;49.506;10.400;2023-08-01T12:28:42;96669.34;;;22.10;60.71
9423;BME280;65863;49.506;10.400;2023-08-01T12:31:26;96646.38;;;21.59;60.98
9423;BME280;65863;49.506;10.400;2023-08-01T12:34:10;96672.22;;;22.10;61.64
9423;BME280;65863;49.506;10.400;2023-08-01T12:36:53;96660.97;;;21.92;61.32
9423;BME280;65863;49.506;10.400;2023-08-01T12:39:37;96690.84;;;21.89;61.87
9423;BME280;65863;49.506;10.400;2023-08-01T12:42:21;96666.63;;;21.25;62.67
9423;BME280;65863;49.506;10.400;2023-08-01T12:45:06;96698.00;;;21.25;64.92
9423;BME280;65863;49.506;10.400;2023-08-01T12:50:34;96692.41;;;20.49;66.41
9423;BME280;65863;49.506;10.400;2023-08-01T12:53:19;96684.47;;;20.27;67.02
9423;BME280;65863;49.506;10.400;2023-08-01T12:56:03;96671.97;;;19.99;67.73
9423;BME280;65863;49.506;10.400;2023-08-01T12:58:47;96671.72;;;20.10;68.59
9423;BME280;65863;49.506;10.400;2023-08-01T13:01:31;96686.78;;;20.13;68.98
9423;BME280;65863;49.506;10.400;2023-08-01T13:04:15;96668.63;;;20.04;69.78
9423;BME280;65863;49.506;10.400;2023-08-01T13:07:00;96647.50;;;19.91;69.63
9423;BME280;65863;49.506;10.400;2023-08-01T13:09:44;96674.59;;;19.92;70.67
9423;BME280;65863;49.506;10.400;2023-08-01T13:12:28;96652.91;;;18.81;70.08
9423;BME280;65863;49.506;10.400;2023-08-01T13:15:12;96709.19;;;18.37;72.56
9423;BME280;65863;49.506;10.400;2023-08-01T13:17:56;96711.41;;;17.79;74.52
9423;BME280;65863;49.506;10.400;2023-08-01T13:20:40;96714.59;;;17.71;77.42
9423;BME280;65863;49.506;10.400;2023-08-01T13:23:25;96730.53;;;17.78;79.87
9423;BME280;65863;49.506;10.400;2023-08-01T13:26:09;96691.19;;;17.57;81.16
9423;BME280;65863;49.506;10.400;2023-08-01T13:28:53;96723.78;;;17.99;81.37
9423;BME280;65863;49.506;10.400;2023-08-01T13:31:37;96724.41;;;17.98;80.43
9423;BME280;65863;49.506;10.400;2023-08-01T13:34:21;96753.31;;;18.24;79.03
9423;BME280;65863;49.506;10.400;2023-08-01T13:37:05;96757.31;;;18.49;78.45
9423;BME280;65863;49.506;10.400;2023-08-01T13:39:49;96736.13;;;18.52;77.19
9423;BME280;65863;49.506;10.400;2023-08-01T13:42:33;96732.50;;;18.81;76.04
9423;BME280;65863;49.506;10.400;2023-08-01T13:45:17;96733.69;;;19.42;75.11
9423;BME280;65863;49.506;10.400;2023-08-01T13:48:01;96742.50;;;20.00;73.29
9423;BME280;65863;49.506;10.400;2023-08-01T13:50:45;96706.81;;;19.79;71.53
9423;BME280;65863;49.506;10.400;2023-08-01T13:53:30;96683.09;;;19.56;72.15
9423;BME280;65863;49.506;10.400;2023-08-01T13:56:14;96733.53;;;19.72;71.17
9423;BME280;65863;49.506;10.400;2023-08-01T13:58:58;96721.81;;;19.64;71.19
9423;BME280;65863;49.506;10.400;2023-08-01T14:01:42;96721.44;;;19.89;71.33
9423;BME280;65863;49.506;10.400;2023-08-01T14:04:26;96701.13;;;19.79;71.54
9423;BME280;65863;49.506;10.400;2023-08-01T14:07:10;96744.97;;;20.08;71.08
9423;BME280;65863;49.506;10.400;2023-08-01T14:09:54;96697.44;;;20.12;71.02
9423;BME280;65863;49.506;10.400;2023-08-01T14:12:38;96754.75;;;20.77;70.26
9423;BME280;65863;49.506;10.400;2023-08-01T14:15:22;96745.91;;;20.51;69.01
9423;BME280;65863;49.506;10.400;2023-08-01T14:18:06;96740.06;;;20.67;68.50
9423;BME280;65863;49.506;10.400;2023-08-01T14:20:50;96740.72;;;21.03;68.15
9423;BME280;65863;49.506;10.400;2023-08-01T14:23:34;96754.63;;;21.53;68.13
9423;BME280;65863;49.506;10.400;2023-08-01T14:26:20;96739.66;;;21.97;67.40
9423;BME280;65863;49.506;10.400;2023-08-01T14:29:04;96733.09;;;21.92;64.79